sensor_id;sensor_type;location;lat;lon;timestamp;P1;durP1;ratioP1;P2;durP2;ratioP2
39242;SDS011;29823;47.404;8.566;2023-06-01T00:00:24;12.57;;;3.78;;
39242;SDS011;29823;47.404;8.566;2023-06-01T00:02:52;5.85;;;3.22;;
39242;SDS011;29823;47.404;8.566;2023-06-01T00:05:21;14.75;;;4.25;;
39242;SDS011;29823;47.404;8.566;2023-06-01T00:07:49;8.70;;;4.15;;
39242;SDS011;29823;47.404;8.566;2023-06-01T00:10:17;12.65;;;3.97;;
39242;SDS011;29823;47.404;8.566;2023-06-01T00:12:45;11.30;;;3.85;;
39242;SDS011;29823;47.404;8.566;2023-06-01T00:15:13;9.82;;;4.47;;
39242;SDS011;29823;47.404;8.566;2023-06-01T00:17:42;8.60;;;3.92;;
39242;SDS011;29823;47.404;8.566;2023-06-01T00:20:10;7.47;;;3.78;;
39242;SDS011;29823;47.404;8.566;2023-06-01T00:22:39;7.78;;;4.10;;
39242;SDS011;29823;47.404;8.566;2023-06-01T00:25:09;10.85;;;3.88;;
39242;SDS011;29823;47.404;8.566;2023-06-01T00:27:37;9.82;;;3.85;;
39242;SDS011;29823;47.404;8.566;2023-06-01T00:30:05;8.93;;;3.70;;
39242;SDS011;29823;47.404;8.566;2023-06-01T00:32:33;11.80;;;3.90;;
39242;SDS011;29823;47.404;8.566;2023-06-01T00:35:02;9.02;;;4.10;;
39242;SDS011;29823;47.404;8.566;2023-06-01T00:37:30;14.02;;;4.30;;
39242;SDS011;29823;47.404;8.566;2023-06-01T00:39:59;8.63;;;3.25;;
39242;SDS011;29823;47.404;8.566;2023-06-01T00:42:27;7.03;;;3.50;;
39242;SDS011;29823;47.404;8.566;2023-06-01T00:44:55;13.02;;;4.32;;
39242;SDS011;29823;47.404;8.566;2023-06-01T00:47:25;10.95;;;4.07;;
39242;SDS011;29823;47.404;8.566;2023-06-01T00:49:53;12.52;;;4.07;;
39242;SDS011;29823;47.404;8.566;2023-06-01T00:52:21;12.38;;;4.22;;
39242;SDS011;29823;47.404;8.566;2023-06-01T00:54:50;13.52;;;4.38;;
39242;SDS011;29823;47.404;8.566;2023-06-01T00:57:20;6.32;;;3.80;;
39242;SDS011;29823;47.404;8.566;2023-06-01T00:59:53;8.93;;;4.30;;
39242;SDS011;29823;47.404;8.566;2023-06-01T01:02:21;12.95;;;4.78;;
39242;SDS011;29823;47.404;8.566;2023-06-01T01:04:49;8.52;;;3.80;;
39242;SDS011;29823;47.404;8.566;2023-06-01T01:07:21;7.82;;;3.67;;
39242;SDS011;29823;47.404;8.566;2023-06-01T01:09:53;11.57;;;4.30;;
39242;SDS011;29823;47.404;8.566;2023-06-01T01:12:28;8.02;;;3.47;;
39242;SDS011;29823;47.404;8.566;2023-06-01T01:15:05;8.63;;;4.13;;
39242;SDS011;29823;47.404;8.566;2023-06-01T01:17:39;12.90;;;4.20;;
39242;SDS011;29823;47.404;8.566;2023-06-01T01:20:12;9.10;;;4.15;;
39242;SDS011;29823;47.404;8.566;2023-06-01T01:22:55;9.50;;;3.90;;
39242;SDS011;29823;47.404;8.566;2023-06-01T01:28:33;9.30;;;3.97;;
39242;SDS011;29823;47.404;8.566;2023-06-01T01:31:05;9.65;;;4.30;;
39242;SDS011;29823;47.404;8.566;2023-06-01T01:33:36;8.98;;;4.60;;
39242;SDS011;29823;47.404;8.566;2023-06-01T01:36:05;8.05;;;4.22;;
39242;SDS011;29823;47.404;8.566;2023-06-01T01:38:35;9.23;;;4.13;;
39242;SDS011;29823;47.404;8.566;2023-06-01T01:41:04;10.10;;;4.28;;
39242;SDS011;29823;47.404;8.566;2023-06-01T01:43:33;9.45;;;4.20;;
39242;SDS011;29823;47.404;8.566;2023-06-01T01:46:03;8.35;;;4.07;;
39242;SDS011;29823;47.404;8.566;2023-06-01T01:48:39;9.02;;;3.92;;
39242;SDS011;29823;47.404;8.566;2023-06-01T01:51:15;9.82;;;4.80;;
39242;SDS011;29823;47.404;8.566;2023-06-01T01:53:47;9.02;;;4.50;;
39242;SDS011;29823;47.404;8.566;2023-06-01T01:56:18;15.23;;;4.70;;
39242;SDS011;29823;47.404;8.566;2023-06-01T01:58:48;10.13;;;4.72;;
39242;SDS011;29823;47.404;8.566;2023-06-01T02:01:17;11.40;;;4.28;;
39242;SDS011;29823;47.404;8.566;2023-06-01T02:03:46;6.00;;;3.83;;
39242;SDS011;29823;47.404;8.566;2023-06-01T02:06:14;8.43;;;4.45;;
39242;SDS011;29823;47.404;8.566;2023-06-01T02:08:42;7.95;;;4.72;;
39242;SDS011;29823;47.404;8.566;2023-06-01T02:11:10;19.08;;;8.98;;
39242;SDS011;29823;47.404;8.566;2023-06-01T02:13:38;10.63;;;4.68;;
39242;SDS011;29823;47.404;8.566;2023-06-01T02:16:07;10.85;;;4.47;;
39242;SDS011;29823;47.404;8.566;2023-06-01T02:18:35;8.38;;;4.43;;
39242;SDS011;29823;47.404;8.566;2023-06-01T02:21:05;11.77;;;4.43;;
39242;SDS011;29823;47.404;8.566;2023-06-01T02:23:34;9.73;;;5.13;;
39242;SDS011;29823;47.404;8.566;2023-06-01T02:26:04;14.45;;;4.75;;
39242;SDS011;29823;47.404;8.566;2023-06-01T02:28:32;9.80;;;4.38;;
39242;SDS011;29823;47.404;8.566;2023-06-01T02:31:00;13.70;;;5.13;;
39242;SDS011;29823;47.404;8.566;2023-06-01T02:33:29;10.07;;;4.63;;
39242;SDS011;29823;47.404;8.566;2023-06-01T02:35:57;8.15;;;4.35;;
39242;SDS011;29823;47.404;8.566;2023-06-01T02:38:25;10.75;;;4.45;;
39242;SDS011;29823;47.404;8.566;2023-06-01T02:40:53;12.23;;;5.22;;
39242;SDS011;29823;47.404;8.566;2023-06-01T02:43:21;8.30;;;4.90;;
39242;SDS011;29823;47.404;8.566;2023-06-01T02:45:49;8.95;;;4.80;;
39242;SDS011;29823;47.404;8.566;2023-06-01T02:48:16;9.70;;;4.90;;
39242;SDS011;29823;47.404;8.566;2023-06-01T02:50:45;9.30;;;4.70;;
39242;SDS011;29823;47.404;8.566;2023-06-01T02:53:14;9.25;;;4.30;;
39242;SDS011;29823;47.404;8.566;2023-06-01T02:55:42;9.45;;;4.95;;
39242;SDS011;29823;47.404;8.566;2023-06-01T02:58:10;8.73;;;5.50;;
39242;SDS011;29823;47.404;8.566;2023-06-01T03:00:42;8.90;;;4.90;;
39242;SDS011;29823;47.404;8.566;2023-06-01T03:03:10;11.55;;;4.80;;
39242;SDS011;29823;47.404;8.566;2023-06-01T03:05:38;9.27;;;4.93;;
39242;SDS011;29823;47.404;8.566;2023-06-01T03:08:10;13.38;;;4.20;;
39242;SDS011;29823;47.404;8.566;2023-06-01T03:10:38;11.20;;;5.45;;
39242;SDS011;29823;47.404;8.566;2023-06-01T03:13:06;14.70;;;5.53;;
39242;SDS011;29823;47.404;8.566;2023-06-01T03:15:34;9.63;;;4.85;;
39242;SDS011;29823;47.404;8.566;2023-06-01T03:18:03;11.82;;;4.93;;
39242;SDS011;29823;47.404;8.566;2023-06-01T03:20:32;14.55;;;5.00;;
39242;SDS011;29823;47.404;8.566;2023-06-01T03:23:00;9.88;;;4.65;;
39242;SDS011;29823;47.404;8.566;2023-06-01T03:25:30;11.48;;;5.45;;
39242;SDS011;29823;47.404;8.566;2023-06-01T03:27:59;9.60;;;4.73;;
39242;SDS011;29823;47.404;8.566;2023-06-01T03:30:27;13.85;;;4.80;;
39242;SDS011;29823;47.404;8.566;2023-06-01T03:32:55;7.65;;;4.80;;
39242;SDS011;29823;47.404;8.566;2023-06-01T03:35:23;11.20;;;4.43;;
39242;SDS011;29823;47.404;8.566;2023-06-01T03:37:50;9.40;;;4.40;;
39242;SDS011;29823;47.404;8.566;2023-06-01T03:40:18;10.95;;;5.32;;
39242;SDS011;29823;47.404;8.566;2023-06-01T03:42:48;10.50;;;4.88;;
39242;SDS011;29823;47.404;8.566;2023-06-01T03:45:16;11.13;;;4.95;;
39242;SDS011;29823;47.404;8.566;2023-06-01T03:47:43;9.85;;;4.63;;
39242;SDS011;29823;47.404;8.566;2023-06-01T03:50:12;10.93;;;4.60;;
39242;SDS011;29823;47.404;8.566;2023-06-01T03:52:40;9.30;;;4.90;;
39242;SDS011;29823;47.404;8.566;2023-06-01T03:55:08;12.35;;;5.03;;
39242;SDS011;29823;47.404;8.566;2023-06-01T03:57:37;13.20;;;5.20;;
39242;SDS011;29823;47.404;8.566;2023-06-01T04:00:07;15.45;;;5.07;;
39242;SDS011;29823;47.404;8.566;2023-06-01T04:02:48;11.02;;;4.90;;
39242;SDS011;29823;47.404;8.566;2023-06-01T04:05:19;10.75;;;5.68;;
39242;SDS011;29823;47.404;8.566;2023-06-01T04:07:47;12.82;;;5.43;;
39242;SDS011;29823;47.404;8.566;2023-06-01T04:10:16;8.73;;;5.03;;
39242;SDS011;29823;47.404;8.566;2023-06-01T04:12:46;10.27;;;5.13;;
39242;SDS011;29823;47.404;8.566;2023-06-01T04:15:17;10.65;;;5.40;;
39242;SDS011;29823;47.404;8.566;2023-06-01T04:17:45;12.98;;;4.60;;
39242;SDS011;29823;47.404;8.566;2023-06-01T04:20:14;8.77;;;4.85;;
39242;SDS011;29823;47.404;8.566;2023-06-01T04:22:43;13.23;;;5.55;;
39242;SDS011;29823;47.404;8.566;2023-06-01T04:25:15;10.82;;;5.20;;
39242;SDS011;29823;47.404;8.566;2023-06-01T04:27:47;13.10;;;6.30;;
39242;SDS011;29823;47.404;8.566;2023-06-01T04:30:19;8.43;;;4.97;;
39242;SDS011;29823;47.404;8.566;2023-06-01T04:32:48;10.32;;;5.10;;
39242;SDS011;29823;47.404;8.566;2023-06-01T04:35:17;10.98;;;4.93;;
39242;SDS011;29823;47.404;8.566;2023-06-01T04:37:45;12.55;;;5.45;;
39242;SDS011;29823;47.404;8.566;2023-06-01T04:40:13;9.90;;;5.32;;
39242;SDS011;29823;47.404;8.566;2023-06-01T04:42:41;15.35;;;5.13;;
39242;SDS011;29823;47.404;8.566;2023-06-01T04:45:11;9.70;;;4.78;;
39242;SDS011;29823;47.404;8.566;2023-06-01T04:47:41;14.55;;;6.00;;
39242;SDS011;29823;47.404;8.566;2023-06-01T04:50:11;11.10;;;4.95;;
39242;SDS011;29823;47.404;8.566;2023-06-01T04:52:42;11.50;;;4.68;;
39242;SDS011;29823;47.404;8.566;2023-06-01T04:55:10;10.48;;;5.10;;
39242;SDS011;29823;47.404;8.566;2023-06-01T04:57:39;13.32;;;5.57;;
39242;SDS011;29823;47.404;8.566;2023-06-01T05:00:10;13.48;;;5.03;;
39242;SDS011;29823;47.404;8.566;2023-06-01T05:02:42;11.23;;;5.18;;
39242;SDS011;29823;47.404;8.566;2023-06-01T05:05:11;13.60;;;4.78;;
39242;SDS011;29823;47.404;8.566;2023-06-01T05:07:39;8.73;;;5.07;;
39242;SDS011;29823;47.404;8.566;2023-06-01T05:10:08;14.45;;;5.25;;
39242;SDS011;29823;47.404;8.566;2023-06-01T05:12:37;9.27;;;4.90;;
39242;SDS011;29823;47.404;8.566;2023-06-01T05:15:06;9.85;;;5.60;;
39242;SDS011;29823;47.404;8.566;2023-06-01T05:17:35;18.92;;;5.60;;
39242;SDS011;29823;47.404;8.566;2023-06-01T05:20:07;16.35;;;5.10;;
39242;SDS011;29823;47.404;8.566;2023-06-01T05:22:37;16.55;;;6.03;;
39242;SDS011;29823;47.404;8.566;2023-06-01T05:25:05;13.75;;;5.07;;
39242;SDS011;29823;47.404;8.566;2023-06-01T05:27:34;12.57;;;5.72;;
39242;SDS011;29823;47.404;8.566;2023-06-01T05:30:02;13.55;;;5.70;;
39242;SDS011;29823;47.404;8.566;2023-06-01T05:32:30;11.85;;;5.53;;
39242;SDS011;29823;47.404;8.566;2023-06-01T05:34:58;16.88;;;6.15;;
39242;SDS011;29823;47.404;8.566;2023-06-01T05:37:27;18.30;;;6.32;;
39242;SDS011;29823;47.404;8.566;2023-06-01T05:39:55;12.55;;;6.15;;
39242;SDS011;29823;47.404;8.566;2023-06-01T05:42:22;17.40;;;5.72;;
39242;SDS011;29823;47.404;8.566;2023-06-01T05:44:50;17.42;;;6.40;;
39242;SDS011;29823;47.404;8.566;2023-06-01T05:47:18;14.75;;;5.70;;
39242;SDS011;29823;47.404;8.566;2023-06-01T05:49:46;14.70;;;5.75;;
39242;SDS011;29823;47.404;8.566;2023-06-01T05:52:14;13.30;;;5.75;;
39242;SDS011;29823;47.404;8.566;2023-06-01T05:54:43;16.25;;;5.95;;
39242;SDS011;29823;47.404;8.566;2023-06-01T05:57:11;14.27;;;5.97;;
39242;SDS011;29823;47.404;8.566;2023-06-01T05:59:39;16.98;;;6.05;;
39242;SDS011;29823;47.404;8.566;2023-06-01T06:02:08;12.55;;;5.57;;
39242;SDS011;29823;47.404;8.566;2023-06-01T06:04:36;14.43;;;5.38;;
39242;SDS011;29823;47.404;8.566;2023-06-01T06:07:04;14.30;;;5.88;;
39242;SDS011;29823;47.404;8.566;2023-06-01T06:09:33;14.98;;;5.90;;
39242;SDS011;29823;47.404;8.566;2023-06-01T06:12:02;15.40;;;6.53;;
39242;SDS011;29823;47.404;8.566;2023-06-01T06:14:32;15.68;;;6.70;;
39242;SDS011;29823;47.404;8.566;2023-06-01T06:17:00;13.00;;;6.43;;
39242;SDS011;29823;47.404;8.566;2023-06-01T06:19:29;18.52;;;6.93;;
39242;SDS011;29823;47.404;8.566;2023-06-01T06:21:57;17.05;;;6.68;;
39242;SDS011;29823;47.404;8.566;2023-06-01T06:24:25;16.70;;;5.97;;
39242;SDS011;29823;47.404;8.566;2023-06-01T06:26:52;15.02;;;6.50;;
39242;SDS011;29823;47.404;8.566;2023-06-01T06:29:22;16.92;;;6.70;;
39242;SDS011;29823;47.404;8.566;2023-06-01T06:31:49;15.82;;;6.68;;
39242;SDS011;29823;47.404;8.566;2023-06-01T06:34:17;16.27;;;6.38;;
39242;SDS011;29823;47.404;8.566;2023-06-01T06:36:45;18.73;;;7.07;;
39242;SDS011;29823;47.404;8.566;2023-06-01T06:39:13;11.13;;;6.00;;
39242;SDS011;29823;47.404;8.566;2023-06-01T06:41:41;18.63;;;6.80;;
39242;SDS011;29823;47.404;8.566;2023-06-01T06:44:09;18.30;;;6.53;;
39242;SDS011;29823;47.404;8.566;2023-06-01T06:46:40;18.98;;;5.95;;
39242;SDS011;29823;47.404;8.566;2023-06-01T06:49:08;18.95;;;5.95;;
39242;SDS011;29823;47.404;8.566;2023-06-01T06:51:36;15.30;;;6.40;;
39242;SDS011;29823;47.404;8.566;2023-06-01T06:54:04;13.48;;;6.53;;
39242;SDS011;29823;47.404;8.566;2023-06-01T06:56:32;14.85;;;5.80;;
39242;SDS011;29823;47.404;8.566;2023-06-01T06:59:00;16.20;;;6.72;;
39242;SDS011;29823;47.404;8.566;2023-06-01T07:01:33;14.85;;;6.72;;
39242;SDS011;29823;47.404;8.566;2023-06-01T07:04:08;15.00;;;6.10;;
39242;SDS011;29823;47.404;8.566;2023-06-01T07:06:36;13.75;;;6.63;;
39242;SDS011;29823;47.404;8.566;2023-06-01T07:09:04;14.00;;;6.03;;
39242;SDS011;29823;47.404;8.566;2023-06-01T07:11:33;15.85;;;6.85;;
39242;SDS011;29823;47.404;8.566;2023-06-01T07:14:01;18.70;;;6.93;;
39242;SDS011;29823;47.404;8.566;2023-06-01T07:16:29;18.00;;;6.15;;
39242;SDS011;29823;47.404;8.566;2023-06-01T07:18:57;21.65;;;6.55;;
39242;SDS011;29823;47.404;8.566;2023-06-01T07:21:26;11.73;;;6.20;;
39242;SDS011;29823;47.404;8.566;2023-06-01T07:23:54;18.92;;;9.57;;
39242;SDS011;29823;47.404;8.566;2023-06-01T07:26:22;20.50;;;10.00;;
39242;SDS011;29823;47.404;8.566;2023-06-01T07:28:51;12.20;;;5.90;;
39242;SDS011;29823;47.404;8.566;2023-06-01T07:31:20;12.98;;;5.97;;
39242;SDS011;29823;47.404;8.566;2023-06-01T07:33:47;10.93;;;6.00;;
39242;SDS011;29823;47.404;8.566;2023-06-01T07:36:17;12.25;;;5.47;;
39242;SDS011;29823;47.404;8.566;2023-06-01T07:38:47;16.40;;;6.40;;
39242;SDS011;29823;47.404;8.566;2023-06-01T07:41:14;11.75;;;5.30;;
39242;SDS011;29823;47.404;8.566;2023-06-01T07:43:42;11.63;;;5.82;;
39242;SDS011;29823;47.404;8.566;2023-06-01T07:46:10;10.35;;;5.78;;
39242;SDS011;29823;47.404;8.566;2023-06-01T07:48:38;13.30;;;5.63;;
39242;SDS011;29823;47.404;8.566;2023-06-01T07:51:06;12.82;;;5.43;;
39242;SDS011;29823;47.404;8.566;2023-06-01T07:53:34;13.35;;;5.93;;
39242;SDS011;29823;47.404;8.566;2023-06-01T07:56:03;16.25;;;5.28;;
39242;SDS011;29823;47.404;8.566;2023-06-01T07:58:31;12.40;;;5.43;;
39242;SDS011;29823;47.404;8.566;2023-06-01T08:00:59;12.05;;;6.07;;
39242;SDS011;29823;47.404;8.566;2023-06-01T08:03:27;13.48;;;6.10;;
39242;SDS011;29823;47.404;8.566;2023-06-01T08:05:55;15.77;;;6.38;;
39242;SDS011;29823;47.404;8.566;2023-06-01T08:08:26;17.45;;;5.80;;
39242;SDS011;29823;47.404;8.566;2023-06-01T08:10:54;9.85;;;5.82;;
39242;SDS011;29823;47.404;8.566;2023-06-01T08:13:23;16.63;;;6.00;;
39242;SDS011;29823;47.404;8.566;2023-06-01T08:15:52;14.20;;;5.80;;
39242;SDS011;29823;47.404;8.566;2023-06-01T08:18:20;14.13;;;5.90;;
39242;SDS011;29823;47.404;8.566;2023-06-01T08:20:48;10.65;;;5.90;;
39242;SDS011;29823;47.404;8.566;2023-06-01T08:23:16;13.93;;;5.88;;
39242;SDS011;29823;47.404;8.566;2023-06-01T08:25:44;14.90;;;6.07;;
39242;SDS011;29823;47.404;8.566;2023-06-01T08:28:12;16.30;;;5.88;;
39242;SDS011;29823;47.404;8.566;2023-06-01T08:30:42;14.50;;;6.00;;
39242;SDS011;29823;47.404;8.566;2023-06-01T08:33:09;14.18;;;5.57;;
39242;SDS011;29823;47.404;8.566;2023-06-01T08:35:37;13.82;;;5.95;;
39242;SDS011;29823;47.404;8.566;2023-06-01T08:38:05;17.17;;;5.65;;
39242;SDS011;29823;47.404;8.566;2023-06-01T08:40:33;11.10;;;5.47;;
39242;SDS011;29823;47.404;8.566;2023-06-01T08:43:04;12.70;;;5.78;;
39242;SDS011;29823;47.404;8.566;2023-06-01T08:45:41;11.68;;;5.47;;
39242;SDS011;29823;47.404;8.566;2023-06-01T08:48:12;16.08;;;6.00;;
39242;SDS011;29823;47.404;8.566;2023-06-01T08:50:43;11.48;;;5.22;;
39242;SDS011;29823;47.404;8.566;2023-06-01T08:53:11;10.07;;;5.35;;
39242;SDS011;29823;47.404;8.566;2023-06-01T08:55:40;18.55;;;6.50;;
39242;SDS011;29823;47.404;8.566;2023-06-01T08:58:08;13.13;;;6.28;;
39242;SDS011;29823;47.404;8.566;2023-06-01T09:00:37;12.00;;;6.50;;
39242;SDS011;29823;47.404;8.566;2023-06-01T09:03:06;14.23;;;6.15;;
39242;SDS011;29823;47.404;8.566;2023-06-01T09:05:34;15.25;;;6.05;;
39242;SDS011;29823;47.404;8.566;2023-06-01T09:08:02;13.38;;;6.20;;
39242;SDS011;29823;47.404;8.566;2023-06-01T09:10:31;15.77;;;6.03;;
39242;SDS011;29823;47.404;8.566;2023-06-01T09:12:59;15.02;;;6.10;;
39242;SDS011;29823;47.404;8.566;2023-06-01T09:15:27;9.98;;;5.43;;
39242;SDS011;29823;47.404;8.566;2023-06-01T09:18:04;17.73;;;6.55;;
39242;SDS011;29823;47.404;8.566;2023-06-01T09:20:34;15.55;;;6.68;;
39242;SDS011;29823;47.404;8.566;2023-06-01T09:23:03;13.52;;;6.47;;
39242;SDS011;29823;47.404;8.566;2023-06-01T09:25:32;11.27;;;6.40;;
39242;SDS011;29823;47.404;8.566;2023-06-01T09:28:00;15.02;;;5.53;;
39242;SDS011;29823;47.404;8.566;2023-06-01T09:30:37;17.10;;;6.80;;
39242;SDS011;29823;47.404;8.566;2023-06-01T09:33:06;13.40;;;6.57;;
39242;SDS011;29823;47.404;8.566;2023-06-01T09:35:41;13.48;;;6.20;;
39242;SDS011;29823;47.404;8.566;2023-06-01T09:38:10;13.00;;;6.28;;
39242;SDS011;29823;47.404;8.566;2023-06-01T09:40:38;11.32;;;6.72;;
39242;SDS011;29823;47.404;8.566;2023-06-01T09:43:19;13.52;;;6.00;;
39242;SDS011;29823;47.404;8.566;2023-06-01T09:46:03;14.40;;;6.18;;
39242;SDS011;29823;47.404;8.566;2023-06-01T09:48:32;9.40;;;5.82;;
39242;SDS011;29823;47.404;8.566;2023-06-01T09:51:01;12.07;;;6.38;;
39242;SDS011;29823;47.404;8.566;2023-06-01T09:53:39;11.80;;;6.07;;
39242;SDS011;29823;47.404;8.566;2023-06-01T09:56:07;10.40;;;6.10;;
39242;SDS011;29823;47.404;8.566;2023-06-01T09:58:35;8.82;;;5.68;;
39242;SDS011;29823;47.404;8.566;2023-06-01T10:01:06;14.13;;;6.50;;
39242;SDS011;29823;47.404;8.566;2023-06-01T10:03:35;16.48;;;5.97;;
39242;SDS011;29823;47.404;8.566;2023-06-01T10:06:10;12.55;;;5.88;;
39242;SDS011;29823;47.404;8.566;2023-06-01T10:08:39;9.38;;;6.03;;
39242;SDS011;29823;47.404;8.566;2023-06-01T10:11:08;13.88;;;5.85;;
39242;SDS011;29823;47.404;8.566;2023-06-01T10:13:36;13.52;;;6.43;;
39242;SDS011;29823;47.404;8.566;2023-06-01T10:16:05;12.25;;;5.80;;
39242;SDS011;29823;47.404;8.566;2023-06-01T10:18:34;15.13;;;5.25;;
39242;SDS011;29823;47.404;8.566;2023-06-01T10:21:03;9.57;;;5.72;;
39242;SDS011;29823;47.404;8.566;2023-06-01T10:23:34;14.57;;;5.93;;
39242;SDS011;29823;47.404;8.566;2023-06-01T10:26:05;12.52;;;5.53;;
39242;SDS011;29823;47.404;8.566;2023-06-01T10:28:37;14.13;;;5.60;;
39242;SDS011;29823;47.404;8.566;2023-06-01T10:34:00;11.98;;;5.68;;
39242;SDS011;29823;47.404;8.566;2023-06-01T10:39:31;15.55;;;6.05;;
39242;SDS011;29823;47.404;8.566;2023-06-01T10:45:07;10.10;;;5.30;;
39242;SDS011;29823;47.404;8.566;2023-06-01T10:47:55;11.48;;;5.75;;
39242;SDS011;29823;47.404;8.566;2023-06-01T10:50:23;8.75;;;5.22;;
39242;SDS011;29823;47.404;8.566;2023-06-01T10:52:52;11.95;;;5.05;;
39242;SDS011;29823;47.404;8.566;2023-06-01T10:55:27;11.45;;;4.93;;
39242;SDS011;29823;47.404;8.566;2023-06-01T11:00:51;15.15;;;5.85;;
39242;SDS011;29823;47.404;8.566;2023-06-01T11:06:25;9.77;;;5.18;;
39242;SDS011;29823;47.404;8.566;2023-06-01T11:08:58;9.95;;;5.30;;
39242;SDS011;29823;47.404;8.566;2023-06-01T11:14:28;8.60;;;4.95;;
39242;SDS011;29823;47.404;8.566;2023-06-01T11:19:58;12.60;;;5.90;;
39242;SDS011;29823;47.404;8.566;2023-06-01T11:22:36;8.27;;;5.10;;
39242;SDS011;29823;47.404;8.566;2023-06-01T11:25:05;10.02;;;4.70;;
39242;SDS011;29823;47.404;8.566;2023-06-01T11:27:36;9.60;;;5.30;;
39242;SDS011;29823;47.404;8.566;2023-06-01T11:30:04;8.50;;;4.65;;
39242;SDS011;29823;47.404;8.566;2023-06-01T11:32:33;8.32;;;5.32;;
39242;SDS011;29823;47.404;8.566;2023-06-01T11:35:15;11.68;;;5.15;;
39242;SDS011;29823;47.404;8.566;2023-06-01T11:37:44;11.30;;;5.28;;
39242;SDS011;29823;47.404;8.566;2023-06-01T11:40:13;10.55;;;5.63;;
39242;SDS011;29823;47.404;8.566;2023-06-01T11:42:43;8.98;;;5.10;;
39242;SDS011;29823;47.404;8.566;2023-06-01T11:45:14;12.13;;;5.53;;
39242;SDS011;29823;47.404;8.566;2023-06-01T11:47:42;8.48;;;4.93;;
39242;SDS011;29823;47.404;8.566;2023-06-01T11:50:21;9.27;;;4.60;;
39242;SDS011;29823;47.404;8.566;2023-06-01T11:52:54;8.80;;;4.25;;
39242;SDS011;29823;47.404;8.566;2023-06-01T11:55:23;13.05;;;4.53;;
39242;SDS011;29823;47.404;8.566;2023-06-01T11:57:53;12.55;;;4.80;;
39242;SDS011;29823;47.404;8.566;2023-06-01T12:00:21;8.20;;;4.53;;
39242;SDS011;29823;47.404;8.566;2023-06-01T12:02:49;5.68;;;4.60;;
39242;SDS011;29823;47.404;8.566;2023-06-01T12:05:37;8.68;;;4.93;;
39242;SDS011;29823;47.404;8.566;2023-06-01T12:08:06;7.22;;;4.53;;
39242;SDS011;29823;47.404;8.566;2023-06-01T12:10:34;11.32;;;4.75;;
39242;SDS011;29823;47.404;8.566;2023-06-01T12:13:04;8.50;;;5.07;;
39242;SDS011;29823;47.404;8.566;2023-06-01T12:15:33;14.10;;;5.25;;
39242;SDS011;29823;47.404;8.566;2023-06-01T12:18:01;6.65;;;4.88;;
39242;SDS011;29823;47.404;8.566;2023-06-01T12:20:30;8.00;;;4.88;;
39242;SDS011;29823;47.404;8.566;2023-06-01T12:22:59;10.35;;;4.40;;
39242;SDS011;29823;47.404;8.566;2023-06-01T12:25:29;8.23;;;5.15;;
39242;SDS011;29823;47.404;8.566;2023-06-01T12:28:02;7.10;;;4.57;;
39242;SDS011;29823;47.404;8.566;2023-06-01T12:30:32;10.80;;;5.22;;
39242;SDS011;29823;47.404;8.566;2023-06-01T12:33:00;8.70;;;5.18;;
39242;SDS011;29823;47.404;8.566;2023-06-01T12:35:30;8.10;;;4.55;;
39242;SDS011;29823;47.404;8.566;2023-06-01T12:38:05;12.05;;;4.60;;
39242;SDS011;29823;47.404;8.566;2023-06-01T12:40:35;8.20;;;4.68;;
39242;SDS011;29823;47.404;8.566;2023-06-01T12:43:03;9.05;;;4.25;;
39242;SDS011;29823;47.404;8.566;2023-06-01T12:45:36;11.48;;;4.38;;
39242;SDS011;29823;47.404;8.566;2023-06-01T12:48:05;8.00;;;4.72;;
39242;SDS011;29823;47.404;8.566;2023-06-01T12:50:33;8.38;;;4.35;;
39242;SDS011;29823;47.404;8.566;2023-06-01T12:53:01;12.88;;;5.03;;
39242;SDS011;29823;47.404;8.566;2023-06-01T12:55:30;9.40;;;4.60;;
39242;SDS011;29823;47.404;8.566;2023-06-01T12:57:57;10.90;;;4.45;;
39242;SDS011;29823;47.404;8.566;2023-06-01T13:00:25;7.18;;;4.55;;
39242;SDS011;29823;47.404;8.566;2023-06-01T13:03:15;9.68;;;4.50;;
39242;SDS011;29823;47.404;8.566;2023-06-01T13:05:43;7.53;;;4.55;;
39242;SDS011;29823;47.404;8.566;2023-06-01T13:08:12;12.63;;;4.28;;
39242;SDS011;29823;47.404;8.566;2023-06-01T13:10:40;9.07;;;4.50;;
39242;SDS011;29823;47.404;8.566;2023-06-01T13:13:08;6.50;;;4.20;;
39242;SDS011;29823;47.404;8.566;2023-06-01T13:15:39;5.10;;;3.72;;
39242;SDS011;29823;47.404;8.566;2023-06-01T13:18:07;10.80;;;4.07;;
39242;SDS011;29823;47.404;8.566;2023-06-01T13:20:36;6.20;;;3.97;;
39242;SDS011;29823;47.404;8.566;2023-06-01T13:23:05;9.15;;;4.70;;
39242;SDS011;29823;47.404;8.566;2023-06-01T13:25:34;7.57;;;4.50;;
39242;SDS011;29823;47.404;8.566;2023-06-01T13:28:02;6.63;;;4.38;;
39242;SDS011;29823;47.404;8.566;2023-06-01T13:30:31;7.03;;;4.25;;
39242;SDS011;29823;47.404;8.566;2023-06-01T13:32:59;6.30;;;4.15;;
39242;SDS011;29823;47.404;8.566;2023-06-01T13:35:27;10.07;;;4.38;;
39242;SDS011;29823;47.404;8.566;2023-06-01T13:37:57;7.40;;;3.90;;
39242;SDS011;29823;47.404;8.566;2023-06-01T13:40:26;14.25;;;4.18;;
39242;SDS011;29823;47.404;8.566;2023-06-01T13:42:53;5.90;;;4.20;;
39242;SDS011;29823;47.404;8.566;2023-06-01T13:45:22;9.02;;;4.13;;
39242;SDS011;29823;47.404;8.566;2023-06-01T13:47:50;6.70;;;4.30;;
39242;SDS011;29823;47.404;8.566;2023-06-01T13:50:21;12.55;;;4.40;;
39242;SDS011;29823;47.404;8.566;2023-06-01T13:52:49;7.50;;;3.78;;
39242;SDS011;29823;47.404;8.566;2023-06-01T13:55:20;10.20;;;4.35;;
39242;SDS011;29823;47.404;8.566;2023-06-01T13:57:49;11.65;;;4.07;;
39242;SDS011;29823;47.404;8.566;2023-06-01T14:00:17;5.63;;;3.40;;
39242;SDS011;29823;47.404;8.566;2023-06-01T14:02:47;6.32;;;3.75;;
39242;SDS011;29823;47.404;8.566;2023-06-01T14:05:15;13.68;;;3.92;;
39242;SDS011;29823;47.404;8.566;2023-06-01T14:07:57;5.43;;;3.45;;
39242;SDS011;29823;47.404;8.566;2023-06-01T14:10:26;5.10;;;3.53;;
39242;SDS011;29823;47.404;8.566;2023-06-01T14:12:54;8.27;;;3.95;;
39242;SDS011;29823;47.404;8.566;2023-06-01T14:15:22;9.80;;;3.75;;
39242;SDS011;29823;47.404;8.566;2023-06-01T14:17:51;7.10;;;4.25;;
39242;SDS011;29823;47.404;8.566;2023-06-01T14:20:18;7.25;;;4.22;;
39242;SDS011;29823;47.404;8.566;2023-06-01T14:22:46;15.75;;;3.65;;
39242;SDS011;29823;47.404;8.566;2023-06-01T14:25:14;5.50;;;3.95;;
39242;SDS011;29823;47.404;8.566;2023-06-01T14:27:44;6.88;;;4.18;;
39242;SDS011;29823;47.404;8.566;2023-06-01T14:30:12;5.90;;;3.80;;
39242;SDS011;29823;47.404;8.566;2023-06-01T14:32:41;15.05;;;3.70;;
39242;SDS011;29823;47.404;8.566;2023-06-01T14:35:09;11.10;;;4.68;;
39242;SDS011;29823;47.404;8.566;2023-06-01T14:37:42;12.20;;;5.63;;
39242;SDS011;29823;47.404;8.566;2023-06-01T14:40:15;11.68;;;6.72;;
39242;SDS011;29823;47.404;8.566;2023-06-01T14:42:45;7.32;;;4.15;;
39242;SDS011;29823;47.404;8.566;2023-06-01T14:45:13;7.60;;;4.15;;
39242;SDS011;29823;47.404;8.566;2023-06-01T14:47:41;6.30;;;4.53;;
39242;SDS011;29823;47.404;8.566;2023-06-01T14:50:10;11.00;;;4.28;;
39242;SDS011;29823;47.404;8.566;2023-06-01T14:52:38;11.95;;;3.97;;
39242;SDS011;29823;47.404;8.566;2023-06-01T14:55:07;10.27;;;4.30;;
39242;SDS011;29823;47.404;8.566;2023-06-01T14:57:38;5.78;;;3.95;;
39242;SDS011;29823;47.404;8.566;2023-06-01T15:00:07;5.47;;;3.65;;
39242;SDS011;29823;47.404;8.566;2023-06-01T15:02:37;6.72;;;3.60;;
39242;SDS011;29823;47.404;8.566;2023-06-01T15:05:05;5.55;;;3.38;;
39242;SDS011;29823;47.404;8.566;2023-06-01T15:07:33;8.40;;;3.88;;
39242;SDS011;29823;47.404;8.566;2023-06-01T15:10:01;5.68;;;3.42;;
39242;SDS011;29823;47.404;8.566;2023-06-01T15:12:30;5.82;;;3.60;;
39242;SDS011;29823;47.404;8.566;2023-06-01T15:14:57;5.55;;;3.35;;